sensor_id;sensor_type;location;lat;lon;timestamp;pressure;altitude;pressure_sealevel;temperature;humidity
72226;BME280;60130;52.250;5.048;2023-07-31T00:00:00;1009.7;;;17.3;91.7
72226;BME280;60130;52.250;5.048;2023-07-31T00:05:00;1009.5;;;17.3;91.3
72226;BME280;60130;52.250;5.048;2023-07-31T00:10:00;1009.6;;;17.4;91.3
72226;BME280;60130;52.250;5.048;2023-07-31T00:15:00;1009.4;;;17.5;91.5
72226;BME280;60130;52.250;5.048;2023-07-31T00:20:00;1009.5;;;17.5;91.6
72226;BME280;60130;52.250;5.048;2023-07-31T00:25:00;1009.5;;;17.4;91.9
72226;BME280;60130;52.250;5.048;2023-07-31T00:30:00;1009.4;;;17.4;92.3
72226;BME280;60130;52.250;5.048;2023-07-31T00:35:00;1009.3;;;17.5;92.3
72226;BME280;60130;52.250;5.048;2023-07-31T00:40:00;1009.4;;;17.5;92.0
72226;BME280;60130;52.250;5.048;2023-07-31T00:45:00;1009.4;;;17.4;91.7
72226;BME280;60130;52.250;5.048;2023-07-31T00:50:00;1009.3;;;17.3;91.7
72226;BME280;60130;52.250;5.048;2023-07-31T00:55:00;1009.3;;;17.2;91.8
72226;BME280;60130;52.250;5.048;2023-07-31T01:00:00;1009.4;;;17.1;91.6
72226;BME280;60130;52.250;5.048;2023-07-31T01:05:00;1009.2;;;17.0;91.7
72226;BME280;60130;52.250;5.048;2023-07-31T01:10:07;1009.3;;;17.0;91.4
72226;BME280;60130;52.250;5.048;2023-07-31T01:15:04;1009.3;;;17.0;91.2
72226;BME280;60130;52.250;5.048;2023-07-31T01:20:05;1009.2;;;17.0;91.1
72226;BME280;60130;52.250;5.048;2023-07-31T01:25:12;1009.2;;;17.1;91.1
72226;BME280;60130;52.250;5.048;2023-07-31T01:30:05;1009.2;;;17.1;91.2
72226;BME280;60130;52.250;5.048;2023-07-31T01:35:00;1009.2;;;17.2;91.5
72226;BME280;60130;52.250;5.048;2023-07-31T01:40:00;1009.2;;;17.3;91.5
72226;BME280;60130;52.250;5.048;2023-07-31T01:45:00;1009.2;;;17.3;91.7
72226;BME280;60130;52.250;5.048;2023-07-31T01:50:00;1009.2;;;17.2;91.9
72226;BME280;60130;52.250;5.048;2023-07-31T01:55:00;1009.0;;;17.3;91.8
72226;BME280;60130;52.250;5.048;2023-07-31T02:00:00;1009.0;;;17.3;91.6
72226;BME280;60130;52.250;5.048;2023-07-31T02:05:00;1008.9;;;17.3;91.4
72226;BME280;60130;52.250;5.048;2023-07-31T02:10:00;1008.9;;;17.3;91.2
72226;BME280;60130;52.250;5.048;2023-07-31T02:15:00;1008.8;;;17.2;91.3
72226;BME280;60130;52.250;5.048;2023-07-31T02:20:00;1008.7;;;17.3;91.0
72226;BME280;60130;52.250;5.048;2023-07-31T02:25:00;1008.7;;;17.3;91.0
72226;BME280;60130;52.250;5.048;2023-07-31T02:30:00;1008.8;;;17.3;90.9
72226;BME280;60130;52.250;5.048;2023-07-31T02:35:00;1008.8;;;17.3;90.7
72226;BME280;60130;52.250;5.048;2023-07-31T02:40:00;1008.6;;;17.3;90.9
72226;BME280;60130;52.250;5.048;2023-07-31T02:45:00;1008.6;;;17.3;90.7
72226;BME280;60130;52.250;5.048;2023-07-31T02:50:00;1008.5;;;17.3;90.6
72226;BME280;60130;52.250;5.048;2023-07-31T02:55:00;1008.5;;;17.3;90.4
72226;BME280;60130;52.250;5.048;2023-07-31T03:00:00;1008.5;;;17.4;90.2
72226;BME280;60130;52.250;5.048;2023-07-31T03:05:00;1008.4;;;17.4;90.0
72226;BME280;60130;52.250;5.048;2023-07-31T03:10:00;1008.4;;;17.4;89.6
72226;BME280;60130;52.250;5.048;2023-07-31T03:15:00;1008.5;;;17.4;89.5
72226;BME280;60130;52.250;5.048;2023-07-31T03:20:00;1008.5;;;17.4;89.6
72226;BME280;60130;52.250;5.048;2023-07-31T03:25:00;1008.4;;;17.5;89.7
72226;BME280;60130;52.250;5.048;2023-07-31T03:30:00;1008.4;;;17.5;89.3
72226;BME280;60130;52.250;5.048;2023-07-31T03:35:00;1008.4;;;17.5;89.3
72226;BME280;60130;52.250;5.048;2023-07-31T03:40:00;1008.3;;;17.5;89.0
72226;BME280;60130;52.250;5.048;2023-07-31T03:45:00;1008.3;;;17.5;88.7
72226;BME280;60130;52.250;5.048;2023-07-31T03:50:00;1008.3;;;17.3;88.6
72226;BME280;60130;52.250;5.048;2023-07-31T03:55:00;1008.2;;;17.2;89.0
72226;BME280;60130;52.250;5.048;2023-07-31T04:00:00;1008.2;;;17.2;89.2
72226;BME280;60130;52.250;5.048;2023-07-31T04:05:00;1008.0;;;17.2;89.6
72226;BME280;60130;52.250;5.048;2023-07-31T04:10:00;1007.9;;;17.1;90.3
72226;BME280;60130;52.250;5.048;2023-07-31T04:15:00;1007.8;;;17.0;90.7
72226;BME280;60130;52.250;5.048;2023-07-31T04:20:00;1007.8;;;17.0;90.6
72226;BME280;60130;52.250;5.048;2023-07-31T04:25:00;1007.8;;;17.1;90.1
72226;BME280;60130;52.250;5.048;2023-07-31T04:30:00;1007.8;;;17.1;90.3
72226;BME280;60130;52.250;5.048;2023-07-31T04:35:00;1007.8;;;17.1;90.0
72226;BME280;60130;52.250;5.048;2023-07-31T04:40:00;1007.8;;;17.1;90.2
72226;BME280;60130;52.250;5.048;2023-07-31T04:45:00;1007.8;;;17.1;90.9
72226;BME280;60130;52.250;5.048;2023-07-31T04:50:00;1007.6;;;17.0;91.5
72226;BME280;60130;52.250;5.048;2023-07-31T04:55:00;1007.6;;;17.0;91.6
72226;BME280;60130;52.250;5.048;2023-07-31T05:00:00;1007.6;;;16.9;91.8
72226;BME280;60130;52.250;5.048;2023-07-31T05:05:00;1007.6;;;16.8;91.9
72226;BME280;60130;52.250;5.048;2023-07-31T05:10:00;1007.5;;;16.8;92.1
72226;BME280;60130;52.250;5.048;2023-07-31T05:15:00;1007.5;;;16.8;92.3
72226;BME280;60130;52.250;5.048;2023-07-31T05:20:00;1007.4;;;16.7;92.4
72226;BME280;60130;52.250;5.048;2023-07-31T05:25:00;1007.3;;;16.8;92.4
72226;BME280;60130;52.250;5.048;2023-07-31T05:30:00;1007.3;;;16.9;92.2
72226;BME280;60130;52.250;5.048;2023-07-31T05:35:00;1007.3;;;16.8;92.2
72226;BME280;60130;52.250;5.048;2023-07-31T05:40:00;1007.2;;;16.7;92.4
72226;BME280;60130;52.250;5.048;2023-07-31T05:45:00;1007.1;;;16.7;92.5
72226;BME280;60130;52.250;5.048;2023-07-31T05:50:00;1007.0;;;16.7;92.5
72226;BME280;60130;52.250;5.048;2023-07-31T05:55:00;1007.0;;;16.7;92.4
72226;BME280;60130;52.250;5.048;2023-07-31T06:00:00;1007.0;;;16.7;92.8
72226;BME280;60130;52.250;5.048;2023-07-31T06:05:00;1006.9;;;16.8;92.8
72226;BME280;60130;52.250;5.048;2023-07-31T06:10:00;1006.9;;;16.8;92.5
72226;BME280;60130;52.250;5.048;2023-07-31T06:15:01;1006.8;;;16.9;92.7
72226;BME280;60130;52.250;5.048;2023-07-31T06:20:00;1006.9;;;16.8;92.8
72226;BME280;60130;52.250;5.048;2023-07-31T06:25:00;1006.8;;;16.9;92.9
72226;BME280;60130;52.250;5.048;2023-07-31T06:30:00;1006.8;;;17.0;92.7
72226;BME280;60130;52.250;5.048;2023-07-31T06:35:00;1006.7;;;17.1;92.8
72226;BME280;60130;52.250;5.048;2023-07-31T06:40:00;1006.7;;;17.2;92.5
72226;BME280;60130;52.250;5.048;2023-07-31T06:45:00;1006.6;;;17.1;92.6
72226;BME280;60130;52.250;5.048;2023-07-31T06:50:00;1006.5;;;17.1;93.0
72226;BME280;60130;52.250;5.048;2023-07-31T06:55:01;1006.5;;;17.2;93.0
72226;BME280;60130;52.250;5.048;2023-07-31T07:00:00;1006.6;;;17.4;92.7
72226;BME280;60130;52.250;5.048;2023-07-31T07:05:00;1006.5;;;17.5;92.8
72226;BME280;60130;52.250;5.048;2023-07-31T07:10:00;1006.5;;;17.5;92.7
72226;BME280;60130;52.250;5.048;2023-07-31T07:15:00;1006.5;;;17.5;92.6
72226;BME280;60130;52.250;5.048;2023-07-31T07:20:00;1006.5;;;17.4;92.8
72226;BME280;60130;52.250;5.048;2023-07-31T07:25:00;1006.5;;;17.6;92.7
72226;BME280;60130;52.250;5.048;2023-07-31T07:30:00;1006.5;;;17.6;92.7
72226;BME280;60130;52.250;5.048;2023-07-31T07:35:00;1006.5;;;17.7;92.6
72226;BME280;60130;52.250;5.048;2023-07-31T07:40:00;1006.4;;;17.8;92.5
72226;BME280;60130;52.250;5.048;2023-07-31T07:45:00;1006.5;;;17.9;92.7
72226;BME280;60130;52.250;5.048;2023-07-31T07:50:00;1006.5;;;17.9;92.4
72226;BME280;60130;52.250;5.048;2023-07-31T07:55:00;1006.4;;;17.9;92.5
72226;BME280;60130;52.250;5.048;2023-07-31T08:00:00;1006.4;;;18.0;92.2
72226;BME280;60130;52.250;5.048;2023-07-31T08:05:00;1006.3;;;17.9;92.3
72226;BME280;60130;52.250;5.048;2023-07-31T08:10:00;1006.3;;;18.0;92.4
72226;BME280;60130;52.250;5.048;2023-07-31T08:15:00;1006.2;;;18.1;92.7
72226;BME280;60130;52.250;5.048;2023-07-31T08:20:00;1006.2;;;18.2;92.3
72226;BME280;60130;52.250;5.048;2023-07-31T08:25:00;1006.2;;;18.3;92.5
72226;BME280;60130;52.250;5.048;2023-07-31T08:30:00;1006.2;;;18.2;92.4
72226;BME280;60130;52.250;5.048;2023-07-31T08:35:00;1006.1;;;18.4;92.3
72226;BME280;60130;52.250;5.048;2023-07-31T08:40:00;1006.1;;;18.3;92.2
72226;BME280;60130;52.250;5.048;2023-07-31T08:45:01;1006.2;;;18.4;92.2
72226;BME280;60130;52.250;5.048;2023-07-31T08:50:01;1006.2;;;18.4;92.6
72226;BME280;60130;52.250;5.048;2023-07-31T08:55:00;1006.0;;;18.4;92.3
72226;BME280;60130;52.250;5.048;2023-07-31T09:00:00;1006.0;;;18.5;92.4
72226;BME280;60130;52.250;5.048;2023-07-31T09:05:00;1006.1;;;18.5;92.9
72226;BME280;60130;52.250;5.048;2023-07-31T09:10:00;1006.2;;;18.5;92.6
72226;BME280;60130;52.250;5.048;2023-07-31T09:15:00;1006.2;;;18.8;92.5
72226;BME280;60130;52.250;5.048;2023-07-31T09:20:14;1006.1;;;18.8;92.6
72226;BME280;60130;52.250;5.048;2023-07-31T09:25:17;1006.0;;;19.0;92.3
72226;BME280;60130;52.250;5.048;2023-07-31T09:30:00;1006.0;;;19.0;92.1
72226;BME280;60130;52.250;5.048;2023-07-31T09:35:00;1006.0;;;19.1;91.7
72226;BME280;60130;52.250;5.048;2023-07-31T09:40:00;1006.0;;;19.2;91.8
72226;BME280;60130;52.250;5.048;2023-07-31T09:45:07;1006.1;;;19.2;91.6
72226;BME280;60130;52.250;5.048;2023-07-31T09:50:00;1006.0;;;19.1;91.6
72226;BME280;60130;52.250;5.048;2023-07-31T09:55:00;1006.0;;;19.2;91.6
72226;BME280;60130;52.250;5.048;2023-07-31T10:00:00;1006.0;;;19.2;91.7
72226;BME280;60130;52.250;5.048;2023-07-31T10:05:02;1006.0;;;19.4;91.5
72226;BME280;60130;52.250;5.048;2023-07-31T10:10:00;1005.9;;;19.3;91.0
72226;BME280;60130;52.250;5.048;2023-07-31T10:15:00;1005.9;;;19.7;90.4
72226;BME280;60130;52.250;5.048;2023-07-31T10:20:01;1006.0;;;19.7;90.1
72226;BME280;60130;52.250;5.048;2023-07-31T10:25:01;1006.0;;;19.7;89.5
72226;BME280;60130;52.250;5.048;2023-07-31T10:30:00;1005.9;;;19.3;90.6
72226;BME280;60130;52.250;5.048;2023-07-31T10:35:01;1006.0;;;19.1;91.0
72226;BME280;60130;52.250;5.048;2023-07-31T10:40:02;1005.9;;;19.4;91.0
72226;BME280;60130;52.250;5.048;2023-07-31T10:45:01;1005.9;;;19.5;90.9
72226;BME280;60130;52.250;5.048;2023-07-31T10:50:12;1006.0;;;19.6;90.4
72226;BME280;60130;52.250;5.048;2023-07-31T10:55:14;1005.9;;;19.6;90.0
72226;BME280;60130;52.250;5.048;2023-07-31T11:00:18;1005.9;;;20.1;89.2
72226;BME280;60130;52.250;5.048;2023-07-31T11:05:07;1005.9;;;20.0;89.0
72226;BME280;60130;52.250;5.048;2023-07-31T11:10:00;1005.9;;;19.8;88.7
72226;BME280;60130;52.250;5.048;2023-07-31T11:15:00;1005.8;;;19.7;89.2
72226;BME280;60130;52.250;5.048;2023-07-31T11:20:00;1005.9;;;19.9;88.9
72226;BME280;60130;52.250;5.048;2023-07-31T11:25:00;1005.9;;;19.8;88.7
72226;BME280;60130;52.250;5.048;2023-07-31T11:30:00;1005.8;;;20.1;88.8
72226;BME280;60130;52.250;5.048;2023-07-31T11:35:00;1005.7;;;20.2;87.2
72226;BME280;60130;52.250;5.048;2023-07-31T11:40:00;1005.7;;;20.1;87.4
72226;BME280;60130;52.250;5.048;2023-07-31T11:45:02;1005.7;;;19.9;87.9
72226;BME280;60130;52.250;5.048;2023-07-31T11:50:00;1005.6;;;19.9;87.6
72226;BME280;60130;52.250;5.048;2023-07-31T11:55:00;1005.6;;;20.0;87.7
72226;BME280;60130;52.250;5.048;2023-07-31T12:00:01;1005.7;;;20.2;87.2
72226;BME280;60130;52.250;5.048;2023-07-31T12:05:01;1005.8;;;20.5;86.6
72226;BME280;60130;52.250;5.048;2023-07-31T12:10:00;1005.8;;;20.5;86.4
72226;BME280;60130;52.250;5.048;2023-07-31T12:15:00;1005.8;;;20.6;85.4
72226;BME280;60130;52.250;5.048;2023-07-31T12:20:00;1005.7;;;20.6;84.6
72226;BME280;60130;52.250;5.048;2023-07-31T12:25:00;1005.5;;;20.5;84.9
72226;BME280;60130;52.250;5.048;2023-07-31T12:30:00;1005.3;;;20.7;84.0
72226;BME280;60130;52.250;5.048;2023-07-31T12:35:00;1005.4;;;21.0;83.6
72226;BME280;60130;52.250;5.048;2023-07-31T12:40:00;1005.5;;;21.0;84.2
72226;BME280;60130;52.250;5.048;2023-07-31T12:45:00;1005.4;;;20.7;83.9
72226;BME280;60130;52.250;5.048;2023-07-31T12:50:00;1005.3;;;20.4;85.5
72226;BME280;60130;52.250;5.048;2023-07-31T12:55:00;1005.3;;;20.6;85.4
72226;BME280;60130;52.250;5.048;2023-07-31T13:00:00;1005.4;;;21.0;83.8
72226;BME280;60130;52.250;5.048;2023-07-31T13:05:00;1005.4;;;21.3;82.3
72226;BME280;60130;52.250;5.048;2023-07-31T13:10:00;1005.3;;;21.7;81.1
72226;BME280;60130;52.250;5.048;2023-07-31T13:15:00;1005.3;;;21.8;80.3
72226;BME280;60130;52.250;5.048;2023-07-31T13:20:00;1005.2;;;21.7;80.5
72226;BME280;60130;52.250;5.048;2023-07-31T13:25:00;1005.0;;;21.5;80.8
72226;BME280;60130;52.250;5.048;2023-07-31T13:30:00;1005.0;;;21.3;81.3
72226;BME280;60130;52.250;5.048;2023-07-31T13:35:00;1004.8;;;21.3;81.5
72226;BME280;60130;52.250;5.048;2023-07-31T13:40:00;1004.9;;;21.5;81.2
72226;BME280;60130;52.250;5.048;2023-07-31T13:45:00;1005.0;;;20.8;83.4
72226;BME280;60130;52.250;5.048;2023-07-31T13:50:00;1005.0;;;20.0;87.0
72226;BME280;60130;52.250;5.048;2023-07-31T13:55:00;1005.0;;;19.7;88.7
72226;BME280;60130;52.250;5.048;2023-07-31T14:00:00;1004.8;;;19.6;89.2
72226;BME280;60130;52.250;5.048;2023-07-31T14:05:00;1005.0;;;19.6;89.1
72226;BME280;60130;52.250;5.048;2023-07-31T14:10:00;1004.8;;;19.8;88.9
72226;BME280;60130;52.250;5.048;2023-07-31T14:15:00;1004.8;;;19.9;88.6
72226;BME280;60130;52.250;5.048;2023-07-31T14:20:00;1004.8;;;20.1;88.6
72226;BME280;60130;52.250;5.048;2023-07-31T14:25:01;1004.7;;;20.1;87.8
72226;BME280;60130;52.250;5.048;2023-07-31T14:30:00;1004.7;;;19.9;88.4
72226;BME280;60130;52.250;5.048;2023-07-31T14:35:00;1004.7;;;19.9;88.0
72226;BME280;60130;52.250;5.048;2023-07-31T14:40:00;1004.7;;;19.8;87.9
72226;BME280;60130;52.250;5.048;2023-07-31T14:45:00;1004.7;;;19.7;87.9
72226;BME280;60130;52.250;5.048;2023-07-31T14:50:00;1004.5;;;19.6;88.2
72226;BME280;60130;52.250;5.048;2023-07-31T14:55:00;1004.4;;;19.5;88.7
72226;BME280;60130;52.250;5.048;2023-07-31T15:00:00;1004.3;;;19.3;89.3
72226;BME280;60130;52.250;5.048;2023-07-31T15:05:00;1004.3;;;19.2;89.1
72226;BME280;60130;52.250;5.048;2023-07-31T15:10:00;1004.2;;;19.0;89.7
72226;BME280;60130;52.250;5.048;2023-07-31T15:15:00;1004.1;;;18.9;90.0
72226;BME280;60130;52.250;5.048;2023-07-31T15:20:00;1003.9;;;18.6;90.5
72226;BME280;60130;52.250;5.048;2023-07-31T15:25:00;1003.9;;;18.7;90.6
72226;BME280;60130;52.250;5.048;2023-07-31T15:30:00;1003.8;;;18.7;90.6
72226;BME280;60130;52.250;5.048;2023-07-31T15:35:00;1003.7;;;18.6;90.8
72226;BME280;60130;52.250;5.048;2023-07-31T15:40:00;1003.7;;;18.5;90.8
72226;BME280;60130;52.250;5.048;2023-07-31T15:45:00;1003.6;;;18.5;91.5
72226;BME280;60130;52.250;5.048;2023-07-31T15:50:00;1003.5;;;18.6;91.9
72226;BME280;60130;52.250;5.048;2023-07-31T15:55:00;1003.3;;;18.5;91.7
72226;BME280;60130;52.250;5.048;2023-07-31T16:00:00;1003.3;;;18.5;92.2
72226;BME280;60130;52.250;5.048;2023-07-31T16:05:00;1003.3;;;18.4;91.3
72226;BME280;60130;52.250;5.048;2023-07-31T16:10:00;1003.3;;;18.2;91.3
72226;BME280;60130;52.250;5.048;2023-07-31T16:15:00;1003.2;;;18.1;92.3
72226;BME280;60130;52.250;5.048;2023-07-31T16:20:00;1003.2;;;18.1;92.5
72226;BME280;60130;52.250;5.048;2023-07-31T16:25:00;1003.2;;;18.0;92.3
72226;BME280;60130;52.250;5.048;2023-07-31T16:30:00;1003.2;;;18.3;92.5
72226;BME280;60130;52.250;5.048;2023-07-31T16:35:00;1003.1;;;18.4;92.2
72226;BME280;60130;52.250;5.048;2023-07-31T16:40:00;1002.9;;;18.6;92.0
72226;BME280;60130;52.250;5.048;2023-07-31T16:45:00;1002.8;;;18.6;91.8
72226;BME280;60130;52.250;5.048;2023-07-31T16:50:00;1002.8;;;18.8;91.6
72226;BME280;60130;52.250;5.048;2023-07-31T16:55:00;1002.9;;;18.9;91.2
72226;BME280;60130;52.250;5.048;2023-07-31T17:00:00;1002.8;;;18.8;91.1
72226;BME280;60130;52.250;5.048;2023-07-31T17:05:00;1002.8;;;18.8;91.3
72226;BME280;60130;52.250;5.048;2023-07-31T17:10:00;1002.7;;;18.9;91.3
72226;BME280;60130;52.250;5.048;2023-07-31T17:15:00;1002.5;;;18.9;91.3
72226;BME280;60130;52.250;5.048;2023-07-31T17:20:00;1002.2;;;19.0;91.1
72226;BME280;60130;52.250;5.048;2023-07-31T17:25:00;1002.0;;;19.1;91.1
72226;BME280;60130;52.250;5.048;2023-07-31T17:30:00;1002.0;;;19.1;90.7
72226;BME280;60130;52.250;5.048;2023-07-31T17:35:00;1002.1;;;19.1;91.0
72226;BME280;60130;52.250;5.048;2023-07-31T17:40:00;1001.9;;;19.1;90.9
72226;BME280;60130;52.250;5.048;2023-07-31T17:45:00;1002.1;;;19.0;91.1
72226;BME280;60130;52.250;5.048;2023-07-31T17:50:00;1002.2;;;19.0;90.9
72226;BME280;60130;52.250;5.048;2023-07-31T17:55:00;1002.3;;;19.0;91.0
72226;BME280;60130;52.250;5.048;2023-07-31T18:00:00;1002.3;;;19.1;90.7
72226;BME280;60130;52.250;5.048;2023-07-31T18:05:00;1002.3;;;19.0;90.8
72226;BME280;60130;52.250;5.048;2023-07-31T18:10:00;1002.4;;;18.9;90.6
72226;BME280;60130;52.250;5.048;2023-07-31T18:15:00;1002.3;;;19.0;90.6
72226;BME280;60130;52.250;5.048;2023-07-31T18:20:00;1002.2;;;19.0;90.5
72226;BME280;60130;52.250;5.048;2023-07-31T18:25:00;1002.2;;;18.9;90.3
72226;BME280;60130;52.250;5.048;2023-07-31T18:30:00;1002.2;;;18.9;90.4
72226;BME280;60130;52.250;5.048;2023-07-31T18:35:00;1002.2;;;18.9;90.3
72226;BME280;60130;52.250;5.048;2023-07-31T18:40:00;1002.2;;;19.0;90.3
72226;BME280;60130;52.250;5.048;2023-07-31T18:45:00;1001.9;;;19.0;89.9
72226;BME280;60130;52.250;5.048;2023-07-31T18:50:00;1001.7;;;19.0;89.5
72226;BME280;60130;52.250;5.048;2023-07-31T18:55:00;1001.7;;;19.0;89.8
72226;BME280;60130;52.250;5.048;2023-07-31T19:00:00;1001.7;;;18.9;89.7
72226;BME280;60130;52.250;5.048;2023-07-31T19:05:00;1001.7;;;18.9;89.8
72226;BME280;60130;52.250;5.048;2023-07-31T19:10:00;1001.7;;;18.9;89.7
72226;BME280;60130;52.250;5.048;2023-07-31T19:15:00;1001.8;;;18.8;89.7
72226;BME280;60130;52.250;5.048;2023-07-31T19:20:00;1001.6;;;18.8;89.7
72226;BME280;60130;52.250;5.048;2023-07-31T19:25:00;1001.6;;;18.7;89.9
72226;BME280;60130;52.250;5.048;2023-07-31T19:30:00;1001.5;;;18.6;90.1
72226;BME280;60130;52.250;5.048;2023-07-31T19:35:00;1001.6;;;18.6;89.9
72226;BME280;60130;52.250;5.048;2023-07-31T19:40:00;1001.5;;;18.5;90.2
72226;BME280;60130;52.250;5.048;2023-07-31T19:45:00;1001.4;;;18.3;90.0
72226;BME280;60130;52.250;5.048;2023-07-31T19:50:00;1001.5;;;18.2;89.3
72226;BME280;60130;52.250;5.048;2023-07-31T19:55:00;1001.5;;;18.1;86.6
72226;BME280;60130;52.250;5.048;2023-07-31T20:00:00;1001.5;;;18.0;83.7
72226;BME280;60130;52.250;5.048;2023-07-31T20:05:00;1001.4;;;17.9;83.5
72226;BME280;60130;52.250;5.048;2023-07-31T20:10:00;1001.3;;;17.8;83.0
72226;BME280;60130;52.250;5.048;2023-07-31T20:15:00;1001.3;;;17.7;84.5
72226;BME280;60130;52.250;5.048;2023-07-31T20:20:00;1001.3;;;17.6;86.1
72226;BME280;60130;52.250;5.048;2023-07-31T20:25:00;1001.2;;;17.7;86.6
72226;BME280;60130;52.250;5.048;2023-07-31T20:30:00;1001.1;;;17.7;87.5
72226;BME280;60130;52.250;5.048;2023-07-31T20:35:00;1001.1;;;17.7;88.2
72226;BME280;60130;52.250;5.048;2023-07-31T20:40:05;1001.1;;;17.8;88.6
72226;BME280;60130;52.250;5.048;2023-07-31T20:45:00;1001.1;;;17.7;88.7
72226;BME280;60130;52.250;5.048;2023-07-31T20:50:00;1001.1;;;17.7;88.6
72226;BME280;60130;52.250;5.048;2023-07-31T20:55:00;1001.0;;;17.6;89.1
72226;BME280;60130;52.250;5.048;2023-07-31T21:00:00;1000.9;;;17.6;89.1
72226;BME280;60130;52.250;5.048;2023-07-31T21:05:00;1000.8;;;17.6;89.1
72226;BME280;60130;52.250;5.048;2023-07-31T21:10:00;1000.7;;;17.7;88.8
72226;BME280;60130;52.250;5.048;2023-07-31T21:15:00;1000.6;;;17.6;88.7
72226;BME280;60130;52.250;5.048;2023-07-31T21:20:00;1000.6;;;17.7;88.3
72226;BME280;60130;52.250;5.048;2023-07-31T21:25:00;1000.5;;;17.6;88.5
72226;BME280;60130;52.250;5.048;2023-07-31T21:30:00;1000.5;;;17.5;88.3
72226;BME280;60130;52.250;5.048;2023-07-31T21:35:00;1000.3;;;17.7;87.8
72226;BME280;60130;52.250;5.048;2023-07-31T21:40:00;1000.3;;;17.6;87.5
72226;BME280;60130;52.250;5.048;2023-07-31T21:45:00;1000.2;;;17.7;87.0
72226;BME280;60130;52.250;5.048;2023-07-31T21:50:00;1000.1;;;17.7;87.2
72226;BME280;60130;52.250;5.048;2023-07-31T21:55:00;1000.1;;;17.6;87.6
72226;BME280;60130;52.250;5.048;2023-07-31T22:00:00;1000.0;;;17.5;87.7
72226;BME280;60130;52.250;5.048;2023-07-31T22:05:00;1000.0;;;17.5;87.6
72226;BME280;60130;52.250;5.048;2023-07-31T22:10:00;1000.0;;;17.5;87.7
72226;BME280;60130;52.250;5.048;2023-07-31T22:15:00;1000.1;;;17.3;88.2
72226;BME280;60130;52.250;5.048;2023-07-31T22:20:00;1000.1;;;16.8;87.3
72226;BME280;60130;52.250;5.048;2023-07-31T22:25:00;999.9;;;16.4;88.1
72226;BME280;60130;52.250;5.048;2023-07-31T22:30:00;999.8;;;16.5;88.4
72226;BME280;60130;52.250;5.048;2023-07-31T22:35:00;999.8;;;16.4;88.5
72226;BME280;60130;52.250;5.048;2023-07-31T22:40:00;1000.0;;;16.4;88.1
72226;BME280;60130;52.250;5.048;2023-07-31T22:45:00;1000.0;;;16.4;88.1
72226;BME280;60130;52.250;5.048;2023-07-31T22:50:00;999.9;;;16.5;87.7
72226;BME280;60130;52.250;5.048;2023-07-31T22:55:00;999.8;;;16.4;87.4
72226;BME280;60130;52.250;5.048;2023-07-31T23:00:00;999.8;;;16.5;87.6
72226;BME280;60130;52.250;5.048;2023-07-31T23:05:00;999.7;;;16.4;87.3
72226;BME280;60130;52.250;5.048;2023-07-31T23:10:00;999.7;;;16.4;87.0
72226;BME280;60130;52.250;5.048;2023-07-31T23:15:00;999.6;;;16.3;87.2
72226;BME280;60130;52.250;5.048;2023-07-31T23:20:00;999.6;;;16.2;87.1
72226;BME280;60130;52.250;5.048;2023-07-31T23:25:00;999.5;;;16.2;87.0
72226;BME280;60130;52.250;5.048;2023-07-31T23:30:00;999.5;;;16.3;86.9
72226;BME280;60130;52.250;5.048;2023-07-31T23:35:00;999.3;;;16.4;86.9
72226;BME280;60130;52.250;5.048;2023-07-31T23:40:00;999.3;;;16.4;86.9
72226;BME280;60130;52.250;5.048;2023-07-31T23:45:00;999.2;;;16.4;87.1
72226;BME280;60130;52.250;5.048;2023-07-31T23:50:00;999.2;;;16.3;86.9
72226;BME280;60130;52.250;5.048;2023-07-31T23:55:00;999.3;;;16.4;87.3
